sensor_id;sensor_type;location;lat;lon;timestamp;temperature;humidity
38380;DHT22;38377;47.418;18.882;2022-08-21T00:02:23;18.50;99.90
38380;DHT22;38377;47.418;18.882;2022-08-21T00:04:49;18.50;99.90
38380;DHT22;38377;47.418;18.882;2022-08-21T00:07:16;18.50;99.90
38380;DHT22;38377;47.418;18.882;2022-08-21T00:09:42;18.50;99.90
38380;DHT22;38377;47.418;18.882;2022-08-21T00:12:08;18.50;99.90
38380;DHT22;38377;47.418;18.882;2022-08-21T00:14:34;18.50;99.90
38380;DHT22;38377;47.418;18.882;2022-08-21T00:17:01;18.50;99.90
38380;DHT22;38377;47.418;18.882;2022-08-21T00:19:27;18.50;99.90
38380;DHT22;38377;47.418;18.882;2022-08-21T00:21:53;18.50;99.90
38380;DHT22;38377;47.418;18.882;2022-08-21T00:24:21;18.50;99.90
38380;DHT22;38377;47.418;18.882;2022-08-21T00:26:48;18.50;99.90
38380;DHT22;38377;47.418;18.882;2022-08-21T00:29:15;18.50;99.90
38380;DHT22;38377;47.418;18.882;2022-08-21T00:31:42;18.50;99.90
38380;DHT22;38377;47.418;18.882;2022-08-21T00:34:08;18.50;99.90
38380;DHT22;38377;47.418;18.882;2022-08-21T00:36:35;18.50;99.90
38380;DHT22;38377;47.418;18.882;2022-08-21T00:39:02;18.40;99.90
38380;DHT22;38377;47.418;18.882;2022-08-21T00:41:28;18.40;99.90
38380;DHT22;38377;47.418;18.882;2022-08-21T00:43:54;18.40;99.90
38380;DHT22;38377;47.418;18.882;2022-08-21T00:46:20;18.40;99.90
38380;DHT22;38377;47.418;18.882;2022-08-21T00:48:46;18.30;99.90
38380;DHT22;38377;47.418;18.882;2022-08-21T00:51:20;18.30;99.90
38380;DHT22;38377;47.418;18.882;2022-08-21T00:53:51;18.30;99.90
38380;DHT22;38377;47.418;18.882;2022-08-21T00:56:19;18.30;99.90
38380;DHT22;38377;47.418;18.882;2022-08-21T00:58:46;18.30;99.90
38380;DHT22;38377;47.418;18.882;2022-08-21T01:01:13;18.30;99.90
38380;DHT22;38377;47.418;18.882;2022-08-21T01:03:38;18.30;99.90
38380;DHT22;38377;47.418;18.882;2022-08-21T01:06:05;18.30;99.90
38380;DHT22;38377;47.418;18.882;2022-08-21T01:08:31;18.30;99.90
38380;DHT22;38377;47.418;18.882;2022-08-21T01:10:59;18.30;99.90
38380;DHT22;38377;47.418;18.882;2022-08-21T01:13:27;18.30;99.90
38380;DHT22;38377;47.418;18.882;2022-08-21T01:15:56;18.30;99.90
38380;DHT22;38377;47.418;18.882;2022-08-21T01:18:25;18.30;99.90
38380;DHT22;38377;47.418;18.882;2022-08-21T01:23:38;18.30;99.90
38380;DHT22;38377;47.418;18.882;2022-08-21T01:26:05;18.30;99.90
38380;DHT22;38377;47.418;18.882;2022-08-21T01:28:37;18.30;99.90
38380;DHT22;38377;47.418;18.882;2022-08-21T01:31:05;18.30;99.90
38380;DHT22;38377;47.418;18.882;2022-08-21T01:33:33;18.30;99.90
38380;DHT22;38377;47.418;18.882;2022-08-21T01:35:59;18.20;99.90
38380;DHT22;38377;47.418;18.882;2022-08-21T01:38:25;18.20;99.90
38380;DHT22;38377;47.418;18.882;2022-08-21T01:40:51;18.20;99.90
38380;DHT22;38377;47.418;18.882;2022-08-21T01:43:16;18.20;99.90
38380;DHT22;38377;47.418;18.882;2022-08-21T01:45:42;18.20;99.90
38380;DHT22;38377;47.418;18.882;2022-08-21T01:48:08;18.20;99.90
38380;DHT22;38377;47.418;18.882;2022-08-21T01:50:35;18.20;99.90
38380;DHT22;38377;47.418;18.882;2022-08-21T01:53:01;18.20;99.90
38380;DHT22;38377;47.418;18.882;2022-08-21T01:55:27;18.20;99.90
38380;DHT22;38377;47.418;18.882;2022-08-21T01:57:53;18.20;99.90
38380;DHT22;38377;47.418;18.882;2022-08-21T02:00:21;18.20;99.90
38380;DHT22;38377;47.418;18.882;2022-08-21T02:02:49;18.20;99.90
38380;DHT22;38377;47.418;18.882;2022-08-21T02:05:15;18.20;99.90
38380;DHT22;38377;47.418;18.882;2022-08-21T02:07:47;18.20;99.90
38380;DHT22;38377;47.418;18.882;2022-08-21T02:10:16;18.20;99.90
38380;DHT22;38377;47.418;18.882;2022-08-21T02:12:42;18.20;99.90
38380;DHT22;38377;47.418;18.882;2022-08-21T02:15:08;18.20;99.90
38380;DHT22;38377;47.418;18.882;2022-08-21T02:17:43;18.20;99.90
38380;DHT22;38377;47.418;18.882;2022-08-21T02:20:12;18.20;99.90
38380;DHT22;38377;47.418;18.882;2022-08-21T02:22:40;18.10;99.90
38380;DHT22;38377;47.418;18.882;2022-08-21T02:25:06;18.10;99.90
38380;DHT22;38377;47.418;18.882;2022-08-21T02:27:41;18.20;99.90
38380;DHT22;38377;47.418;18.882;2022-08-21T02:30:10;18.20;99.90
38380;DHT22;38377;47.418;18.882;2022-08-21T02:32:37;18.10;99.90
38380;DHT22;38377;47.418;18.882;2022-08-21T02:35:03;18.10;99.90
38380;DHT22;38377;47.418;18.882;2022-08-21T02:37:29;18.10;99.90
38380;DHT22;38377;47.418;18.882;2022-08-21T02:39:55;18.10;99.90
38380;DHT22;38377;47.418;18.882;2022-08-21T02:42:20;18.10;99.90
38380;DHT22;38377;47.418;18.882;2022-08-21T02:44:46;18.10;99.90
38380;DHT22;38377;47.418;18.882;2022-08-21T02:47:13;18.10;99.90
38380;DHT22;38377;47.418;18.882;2022-08-21T02:49:39;18.10;99.90
38380;DHT22;38377;47.418;18.882;2022-08-21T02:52:05;18.10;99.90
38380;DHT22;38377;47.418;18.882;2022-08-21T02:54:31;18.10;99.90
38380;DHT22;38377;47.418;18.882;2022-08-21T02:56:57;18.10;99.90
38380;DHT22;38377;47.418;18.882;2022-08-21T02:59:23;18.10;99.90
38380;DHT22;38377;47.418;18.882;2022-08-21T03:01:49;18.10;99.90
38380;DHT22;38377;47.418;18.882;2022-08-21T03:04:15;18.10;99.90
38380;DHT22;38377;47.418;18.882;2022-08-21T03:06:40;18.10;99.90
38380;DHT22;38377;47.418;18.882;2022-08-21T03:09:06;18.10;99.90
38380;DHT22;38377;47.418;18.882;2022-08-21T03:11:32;18.10;99.90
38380;DHT22;38377;47.418;18.882;2022-08-21T03:13:58;18.10;99.90
38380;DHT22;38377;47.418;18.882;2022-08-21T03:16:24;18.10;99.90
38380;DHT22;38377;47.418;18.882;2022-08-21T03:18:50;18.10;99.90
38380;DHT22;38377;47.418;18.882;2022-08-21T03:21:16;18.10;99.90
38380;DHT22;38377;47.418;18.882;2022-08-21T03:23:44;18.10;99.90
38380;DHT22;38377;47.418;18.882;2022-08-21T03:26:09;18.10;99.90
38380;DHT22;38377;47.418;18.882;2022-08-21T03:28:37;18.10;99.90
38380;DHT22;38377;47.418;18.882;2022-08-21T03:31:03;18.10;99.90
38380;DHT22;38377;47.418;18.882;2022-08-21T03:33:29;18.10;99.90
38380;DHT22;38377;47.418;18.882;2022-08-21T03:36:05;18.10;99.90
38380;DHT22;38377;47.418;18.882;2022-08-21T03:38:33;18.10;99.90
38380;DHT22;38377;47.418;18.882;2022-08-21T03:40:59;18.10;99.90
38380;DHT22;38377;47.418;18.882;2022-08-21T03:43:26;18.10;99.90
38380;DHT22;38377;47.418;18.882;2022-08-21T03:45:52;18.10;99.90
38380;DHT22;38377;47.418;18.882;2022-08-21T03:48:18;18.10;99.90
38380;DHT22;38377;47.418;18.882;2022-08-21T03:50:44;18.10;99.90
38380;DHT22;38377;47.418;18.882;2022-08-21T03:53:13;18.10;99.90
38380;DHT22;38377;47.418;18.882;2022-08-21T03:55:39;18.10;99.90
38380;DHT22;38377;47.418;18.882;2022-08-21T03:58:05;18.10;99.90
38380;DHT22;38377;47.418;18.882;2022-08-21T04:00:31;18.10;99.90
38380;DHT22;38377;47.418;18.882;2022-08-21T04:02:57;18.10;99.90
38380;DHT22;38377;47.418;18.882;2022-08-21T04:05:23;18.10;99.90
38380;DHT22;38377;47.418;18.882;2022-08-21T04:07:58;18.10;99.90
38380;DHT22;38377;47.418;18.882;2022-08-21T04:10:24;18.10;99.90
38380;DHT22;38377;47.418;18.882;2022-08-21T04:12:51;18.10;99.90
38380;DHT22;38377;47.418;18.882;2022-08-21T04:15:17;18.10;99.90
38380;DHT22;38377;47.418;18.882;2022-08-21T04:17:43;18.10;99.90
38380;DHT22;38377;47.418;18.882;2022-08-21T04:20:09;18.10;99.90
38380;DHT22;38377;47.418;18.882;2022-08-21T04:22:35;18.10;99.90
38380;DHT22;38377;47.418;18.882;2022-08-21T04:25:00;18.10;99.90
38380;DHT22;38377;47.418;18.882;2022-08-21T04:27:26;18.10;99.90
38380;DHT22;38377;47.418;18.882;2022-08-21T04:29:52;18.10;99.90
38380;DHT22;38377;47.418;18.882;2022-08-21T04:32:24;18.10;99.90
38380;DHT22;38377;47.418;18.882;2022-08-21T04:34:50;18.20;99.90
38380;DHT22;38377;47.418;18.882;2022-08-21T04:37:22;18.10;99.90
38380;DHT22;38377;47.418;18.882;2022-08-21T04:39:48;18.20;99.90
38380;DHT22;38377;47.418;18.882;2022-08-21T04:42:13;18.20;99.90
38380;DHT22;38377;47.418;18.882;2022-08-21T04:44:39;18.20;99.90
38380;DHT22;38377;47.418;18.882;2022-08-21T04:47:06;18.20;99.90
38380;DHT22;38377;47.418;18.882;2022-08-21T04:49:32;18.20;99.90
38380;DHT22;38377;47.418;18.882;2022-08-21T04:51:58;18.20;99.90
38380;DHT22;38377;47.418;18.882;2022-08-21T04:54:25;18.20;99.90
38380;DHT22;38377;47.418;18.882;2022-08-21T04:56:56;18.20;99.90
38380;DHT22;38377;47.418;18.882;2022-08-21T04:59:31;18.30;99.90
38380;DHT22;38377;47.418;18.882;2022-08-21T05:01:59;18.30;99.90
38380;DHT22;38377;47.418;18.882;2022-08-21T05:04:29;18.20;99.90
38380;DHT22;38377;47.418;18.882;2022-08-21T05:06:58;18.30;99.90
38380;DHT22;38377;47.418;18.882;2022-08-21T05:09:25;18.30;99.90
38380;DHT22;38377;47.418;18.882;2022-08-21T05:11:52;18.30;99.90
38380;DHT22;38377;47.418;18.882;2022-08-21T05:14:18;18.30;99.90
38380;DHT22;38377;47.418;18.882;2022-08-21T05:16:45;18.30;99.90
38380;DHT22;38377;47.418;18.882;2022-08-21T05:19:11;18.40;99.90
38380;DHT22;38377;47.418;18.882;2022-08-21T05:21:41;18.40;99.90
38380;DHT22;38377;47.418;18.882;2022-08-21T05:24:07;18.40;99.90
38380;DHT22;38377;47.418;18.882;2022-08-21T05:26:33;18.40;99.90
38380;DHT22;38377;47.418;18.882;2022-08-21T05:28:59;18.40;99.90
38380;DHT22;38377;47.418;18.882;2022-08-21T05:31:25;18.40;99.90
38380;DHT22;38377;47.418;18.882;2022-08-21T05:33:51;18.40;99.90
38380;DHT22;38377;47.418;18.882;2022-08-21T05:36:18;18.50;99.90
38380;DHT22;38377;47.418;18.882;2022-08-21T05:38:43;18.50;99.90
38380;DHT22;38377;47.418;18.882;2022-08-21T05:41:09;18.50;99.90
38380;DHT22;38377;47.418;18.882;2022-08-21T05:43:35;18.50;99.90
38380;DHT22;38377;47.418;18.882;2022-08-21T05:46:05;18.60;99.90
38380;DHT22;38377;47.418;18.882;2022-08-21T05:48:32;18.60;99.90
38380;DHT22;38377;47.418;18.882;2022-08-21T05:51:08;18.60;99.90
38380;DHT22;38377;47.418;18.882;2022-08-21T05:53:35;18.60;99.90
38380;DHT22;38377;47.418;18.882;2022-08-21T05:56:01;18.60;99.90
38380;DHT22;38377;47.418;18.882;2022-08-21T05:58:29;18.70;99.90
38380;DHT22;38377;47.418;18.882;2022-08-21T06:00:56;18.70;99.90
38380;DHT22;38377;47.418;18.882;2022-08-21T06:03:25;18.70;99.90
38380;DHT22;38377;47.418;18.882;2022-08-21T06:05:51;18.70;99.90
38380;DHT22;38377;47.418;18.882;2022-08-21T06:08:18;18.70;99.90
38380;DHT22;38377;47.418;18.882;2022-08-21T06:10:46;18.70;99.90
38380;DHT22;38377;47.418;18.882;2022-08-21T06:13:13;18.70;99.90
38380;DHT22;38377;47.418;18.882;2022-08-21T06:15:38;18.70;99.90
38380;DHT22;38377;47.418;18.882;2022-08-21T06:18:05;18.70;99.90
38380;DHT22;38377;47.418;18.882;2022-08-21T06:20:31;18.70;99.90
38380;DHT22;38377;47.418;18.882;2022-08-21T06:22:58;18.70;99.90
38380;DHT22;38377;47.418;18.882;2022-08-21T06:25:24;18.70;99.90
38380;DHT22;38377;47.418;18.882;2022-08-21T06:27:50;18.80;99.90
38380;DHT22;38377;47.418;18.882;2022-08-21T06:30:17;18.70;99.90
38380;DHT22;38377;47.418;18.882;2022-08-21T06:32:43;18.80;99.90
38380;DHT22;38377;47.418;18.882;2022-08-21T06:35:09;18.80;99.90
38380;DHT22;38377;47.418;18.882;2022-08-21T06:37:35;18.90;99.90
38380;DHT22;38377;47.418;18.882;2022-08-21T06:40:03;19.00;99.90
38380;DHT22;38377;47.418;18.882;2022-08-21T06:42:29;19.10;99.90
38380;DHT22;38377;47.418;18.882;2022-08-21T06:44:56;19.20;99.90
38380;DHT22;38377;47.418;18.882;2022-08-21T06:47:22;19.30;99.90
38380;DHT22;38377;47.418;18.882;2022-08-21T06:49:48;19.40;99.90
38380;DHT22;38377;47.418;18.882;2022-08-21T06:52:14;19.50;99.90
38380;DHT22;38377;47.418;18.882;2022-08-21T06:54:40;19.70;99.90
38380;DHT22;38377;47.418;18.882;2022-08-21T06:57:07;19.80;99.90
38380;DHT22;38377;47.418;18.882;2022-08-21T06:59:33;19.80;99.90
38380;DHT22;38377;47.418;18.882;2022-08-21T07:01:59;19.90;99.90
38380;DHT22;38377;47.418;18.882;2022-08-21T07:04:25;19.90;99.90
38380;DHT22;38377;47.418;18.882;2022-08-21T07:06:50;19.90;99.90
38380;DHT22;38377;47.418;18.882;2022-08-21T07:09:16;19.90;99.90
38380;DHT22;38377;47.418;18.882;2022-08-21T07:11:42;20.00;99.90
38380;DHT22;38377;47.418;18.882;2022-08-21T07:14:09;20.10;99.90
38380;DHT22;38377;47.418;18.882;2022-08-21T07:16:35;20.20;99.90
38380;DHT22;38377;47.418;18.882;2022-08-21T07:19:01;20.20;99.90
38380;DHT22;38377;47.418;18.882;2022-08-21T07:21:26;20.10;99.90
38380;DHT22;38377;47.418;18.882;2022-08-21T07:23:52;19.90;99.90
38380;DHT22;38377;47.418;18.882;2022-08-21T07:26:20;19.90;99.90
38380;DHT22;38377;47.418;18.882;2022-08-21T07:28:47;19.90;99.90
38380;DHT22;38377;47.418;18.882;2022-08-21T07:31:15;19.80;99.90
38380;DHT22;38377;47.418;18.882;2022-08-21T07:33:42;19.70;99.90
38380;DHT22;38377;47.418;18.882;2022-08-21T07:36:08;19.80;99.90
38380;DHT22;38377;47.418;18.882;2022-08-21T07:38:35;19.80;99.90
38380;DHT22;38377;47.418;18.882;2022-08-21T07:41:02;19.90;99.90
38380;DHT22;38377;47.418;18.882;2022-08-21T07:43:28;20.10;99.90
38380;DHT22;38377;47.418;18.882;2022-08-21T07:45:54;20.30;99.90
38380;DHT22;38377;47.418;18.882;2022-08-21T07:48:21;20.30;99.90
38380;DHT22;38377;47.418;18.882;2022-08-21T07:50:47;20.20;99.90
38380;DHT22;38377;47.418;18.882;2022-08-21T07:53:14;20.20;99.90
38380;DHT22;38377;47.418;18.882;2022-08-21T07:55:40;20.20;99.90
38380;DHT22;38377;47.418;18.882;2022-08-21T07:58:06;20.10;99.90
38380;DHT22;38377;47.418;18.882;2022-08-21T08:00:34;20.20;99.90
38380;DHT22;38377;47.418;18.882;2022-08-21T08:03:00;20.40;99.90
38380;DHT22;38377;47.418;18.882;2022-08-21T08:05:28;20.60;99.90
38380;DHT22;38377;47.418;18.882;2022-08-21T08:07:57;20.70;99.90
38380;DHT22;38377;47.418;18.882;2022-08-21T08:10:23;20.80;99.90
38380;DHT22;38377;47.418;18.882;2022-08-21T08:12:52;21.00;99.90
38380;DHT22;38377;47.418;18.882;2022-08-21T08:15:22;21.20;99.90
38380;DHT22;38377;47.418;18.882;2022-08-21T08:17:49;21.20;99.90
38380;DHT22;38377;47.418;18.882;2022-08-21T08:20:16;21.20;99.90
38380;DHT22;38377;47.418;18.882;2022-08-21T08:22:43;21.20;99.90
38380;DHT22;38377;47.418;18.882;2022-08-21T08:25:11;21.30;99.90
38380;DHT22;38377;47.418;18.882;2022-08-21T08:27:37;21.10;99.90
38380;DHT22;38377;47.418;18.882;2022-08-21T08:30:05;21.10;99.90
38380;DHT22;38377;47.418;18.882;2022-08-21T08:32:30;21.30;99.90
38380;DHT22;38377;47.418;18.882;2022-08-21T08:34:56;21.30;99.90
38380;DHT22;38377;47.418;18.882;2022-08-21T08:37:22;21.20;99.90
38380;DHT22;38377;47.418;18.882;2022-08-21T08:39:48;21.20;99.90
38380;DHT22;38377;47.418;18.882;2022-08-21T08:44:43;21.50;99.90
38380;DHT22;38377;47.418;18.882;2022-08-21T08:47:15;21.40;99.90
38380;DHT22;38377;47.418;18.882;2022-08-21T08:50:17;21.50;99.90
38380;DHT22;38377;47.418;18.882;2022-08-21T08:53:05;21.60;99.90
38380;DHT22;38377;47.418;18.882;2022-08-21T08:55:40;21.70;99.90
38380;DHT22;38377;47.418;18.882;2022-08-21T08:58:11;21.90;99.90
38380;DHT22;38377;47.418;18.882;2022-08-21T09:00:38;21.80;99.90
38380;DHT22;38377;47.418;18.882;2022-08-21T09:03:04;21.80;99.90
38380;DHT22;38377;47.418;18.882;2022-08-21T09:05:43;22.10;99.90
38380;DHT22;38377;47.418;18.882;2022-08-21T09:11:37;22.60;99.90
38380;DHT22;38377;47.418;18.882;2022-08-21T09:16:47;22.10;99.90
38380;DHT22;38377;47.418;18.882;2022-08-21T09:25:08;22.00;99.90
38380;DHT22;38377;47.418;18.882;2022-08-21T09:27:36;22.10;99.90
38380;DHT22;38377;47.418;18.882;2022-08-21T09:30:05;22.30;99.90
38380;DHT22;38377;47.418;18.882;2022-08-21T09:32:34;22.40;99.90
38380;DHT22;38377;47.418;18.882;2022-08-21T09:35:16;22.70;99.90
38380;DHT22;38377;47.418;18.882;2022-08-21T09:37:58;22.90;99.90
38380;DHT22;38377;47.418;18.882;2022-08-21T09:43:06;23.10;99.90
38380;DHT22;38377;47.418;18.882;2022-08-21T09:45:32;23.30;99.90
38380;DHT22;38377;47.418;18.882;2022-08-21T09:48:13;23.20;99.90
38380;DHT22;38377;47.418;18.882;2022-08-21T09:50:41;23.40;99.90
38380;DHT22;38377;47.418;18.882;2022-08-21T09:53:16;23.50;99.90
38380;DHT22;38377;47.418;18.882;2022-08-21T09:58:44;23.00;99.90
38380;DHT22;38377;47.418;18.882;2022-08-21T10:01:23;23.20;99.90
38380;DHT22;38377;47.418;18.882;2022-08-21T10:04:04;23.30;99.90
38380;DHT22;38377;47.418;18.882;2022-08-21T10:06:33;23.10;99.90
38380;DHT22;38377;47.418;18.882;2022-08-21T10:11:34;22.80;99.90
38380;DHT22;38377;47.418;18.882;2022-08-21T10:14:23;22.80;99.90
38380;DHT22;38377;47.418;18.882;2022-08-21T10:22:38;23.80;99.90
38380;DHT22;38377;47.418;18.882;2022-08-21T10:47:05;23.30;99.90
38380;DHT22;38377;47.418;18.882;2022-08-21T10:52:28;23.20;99.90
38380;DHT22;38377;47.418;18.882;2022-08-21T10:55:41;23.30;99.90
38380;DHT22;38377;47.418;18.882;2022-08-21T10:58:03;23.60;99.90
38380;DHT22;38377;47.418;18.882;2022-08-21T11:01:28;23.90;99.90
38380;DHT22;38377;47.418;18.882;2022-08-21T11:03:45;24.30;99.90
38380;DHT22;38377;47.418;18.882;2022-08-21T11:08:51;24.00;99.90
38380;DHT22;38377;47.418;18.882;2022-08-21T11:13:49;23.50;99.90
38380;DHT22;38377;47.418;18.882;2022-08-21T11:19:20;23.70;99.90
38380;DHT22;38377;47.418;18.882;2022-08-21T11:24:34;23.50;99.90
38380;DHT22;38377;47.418;18.882;2022-08-21T11:29:49;23.40;99.90
38380;DHT22;38377;47.418;18.882;2022-08-21T11:38:28;23.70;99.90
38380;DHT22;38377;47.418;18.882;2022-08-21T11:43:28;23.80;99.90
38380;DHT22;38377;47.418;18.882;2022-08-21T11:51:46;23.70;99.90
38380;DHT22;38377;47.418;18.882;2022-08-21T11:54:39;23.70;99.90
38380;DHT22;38377;47.418;18.882;2022-08-21T11:59:49;23.50;99.90
38380;DHT22;38377;47.418;18.882;2022-08-21T12:02:21;23.40;99.90
38380;DHT22;38377;47.418;18.882;2022-08-21T12:04:56;23.40;99.90
38380;DHT22;38377;47.418;18.882;2022-08-21T12:09:59;23.00;99.90
38380;DHT22;38377;47.418;18.882;2022-08-21T12:12:29;22.80;99.90
38380;DHT22;38377;47.418;18.882;2022-08-21T12:18:28;22.60;99.90
38380;DHT22;38377;47.418;18.882;2022-08-21T12:21:02;22.40;99.90
38380;DHT22;38377;47.418;18.882;2022-08-21T12:23:31;22.30;99.90
38380;DHT22;38377;47.418;18.882;2022-08-21T12:28:44;22.20;99.90
38380;DHT22;38377;47.418;18.882;2022-08-21T12:31:28;22.20;99.90
38380;DHT22;38377;47.418;18.882;2022-08-21T12:33:59;22.10;99.90
38380;DHT22;38377;47.418;18.882;2022-08-21T12:36:45;22.00;99.90
38380;DHT22;38377;47.418;18.882;2022-08-21T12:39:17;21.80;99.90
38380;DHT22;38377;47.418;18.882;2022-08-21T12:41:50;21.80;99.90
38380;DHT22;38377;47.418;18.882;2022-08-21T12:44:22;21.80;99.90
38380;DHT22;38377;47.418;18.882;2022-08-21T12:47:06;21.80;99.90
38380;DHT22;38377;47.418;18.882;2022-08-21T12:49:51;21.80;99.90
38380;DHT22;38377;47.418;18.882;2022-08-21T12:52:29;21.70;99.90
38380;DHT22;38377;47.418;18.882;2022-08-21T12:54:55;21.80;99.90
38380;DHT22;38377;47.418;18.882;2022-08-21T12:57:26;21.80;99.90
38380;DHT22;38377;47.418;18.882;2022-08-21T13:00:05;21.80;99.90
38380;DHT22;38377;47.418;18.882;2022-08-21T13:02:41;21.70;99.90
38380;DHT22;38377;47.418;18.882;2022-08-21T13:05:14;21.70;99.90
38380;DHT22;38377;47.418;18.882;2022-08-21T13:07:44;21.70;99.90
38380;DHT22;38377;47.418;18.882;2022-08-21T13:10:28;21.50;99.90
38380;DHT22;38377;47.418;18.882;2022-08-21T13:12:56;21.60;99.90
38380;DHT22;38377;47.418;18.882;2022-08-21T13:15:26;21.60;99.90
38380;DHT22;38377;47.418;18.882;2022-08-21T13:17:51;21.60;99.90
38380;DHT22;38377;47.418;18.882;2022-08-21T13:20:30;21.70;99.90
38380;DHT22;38377;47.418;18.882;2022-08-21T13:22:57;21.70;99.90
38380;DHT22;38377;47.418;18.882;2022-08-21T13:25:28;21.70;99.90
38380;DHT22;38377;47.418;18.882;2022-08-21T13:28:04;21.60;99.90
38380;DHT22;38377;47.418;18.882;2022-08-21T13:30:30;21.60;99.90
38380;DHT22;38377;47.418;18.882;2022-08-21T13:32:59;21.40;99.90
38380;DHT22;38377;47.418;18.882;2022-08-21T13:35:46;21.40;99.90
38380;DHT22;38377;47.418;18.882;2022-08-21T13:38:15;21.30;99.90
38380;DHT22;38377;47.418;18.882;2022-08-21T13:40:44;21.10;99.90
38380;DHT22;38377;47.418;18.882;2022-08-21T13:43:18;21.00;99.90
38380;DHT22;38377;47.418;18.882;2022-08-21T13:45:49;21.00;99.90
38380;DHT22;38377;47.418;18.882;2022-08-21T13:48:15;21.00;99.90
38380;DHT22;38377;47.418;18.882;2022-08-21T13:50:42;21.00;99.90
38380;DHT22;38377;47.418;18.882;2022-08-21T13:53:27;21.00;99.90
38380;DHT22;38377;47.418;18.882;2022-08-21T13:55:53;20.90;99.90
38380;DHT22;38377;47.418;18.882;2022-08-21T13:58:28;20.80;99.90
38380;DHT22;38377;47.418;18.882;2022-08-21T14:00:55;20.70;99.90
38380;DHT22;38377;47.418;18.882;2022-08-21T14:03:35;20.70;99.90
38380;DHT22;38377;47.418;18.882;2022-08-21T14:06:17;20.70;99.90
38380;DHT22;38377;47.418;18.882;2022-08-21T14:08:53;20.60;99.90
38380;DHT22;38377;47.418;18.882;2022-08-21T14:11:19;20.50;99.90
38380;DHT22;38377;47.418;18.882;2022-08-21T14:13:49;20.40;99.90
38380;DHT22;38377;47.418;18.882;2022-08-21T14:18:48;20.20;99.90
38380;DHT22;38377;47.418;18.882;2022-08-21T14:21:34;20.10;99.90
38380;DHT22;38377;47.418;18.882;2022-08-21T14:24:10;20.10;99.90
38380;DHT22;38377;47.418;18.882;2022-08-21T14:26:47;20.10;99.90
38380;DHT22;38377;47.418;18.882;2022-08-21T14:29:15;20.00;99.90
38380;DHT22;38377;47.418;18.882;2022-08-21T14:31:42;20.00;99.90
38380;DHT22;38377;47.418;18.882;2022-08-21T14:34:10;19.90;99.90
38380;DHT22;38377;47.418;18.882;2022-08-21T14:36:36;19.90;99.90
38380;DHT22;38377;47.418;18.882;2022-08-21T14:39:02;19.90;99.90
38380;DHT22;38377;47.418;18.882;2022-08-21T14:41:28;19.90;99.90
38380;DHT22;38377;47.418;18.882;2022-08-21T14:43:56;19.90;99.90
38380;DHT22;38377;47.418;18.882;2022-08-21T14:46:25;19.80;99.90
38380;DHT22;38377;47.418;18.882;2022-08-21T14:48:51;19.80;99.90
38380;DHT22;38377;47.418;18.882;2022-08-21T14:51:17;19.80;99.90
38380;DHT22;38377;47.418;18.882;2022-08-21T14:53:43;19.70;99.90
38380;DHT22;38377;47.418;18.882;2022-08-21T14:56:10;19.70;99.90
38380;DHT22;38377;47.418;18.882;2022-08-21T14:58:44;19.70;99.90
38380;DHT22;38377;47.418;18.882;2022-08-21T15:01:12;19.60;99.90
38380;DHT22;38377;47.418;18.882;2022-08-21T15:03:38;19.60;99.90
38380;DHT22;38377;47.418;18.882;2022-08-21T15:06:06;19.60;99.90
38380;DHT22;38377;47.418;18.882;2022-08-21T15:08:32;19.60;99.90
38380;DHT22;38377;47.418;18.882;2022-08-21T15:10:59;19.50;99.90
38380;DHT22;38377;47.418;18.882;2022-08-21T15:13:25;19.40;99.90
38380;DHT22;38377;47.418;18.882;2022-08-21T15:15:51;19.40;99.90
38380;DHT22;38377;47.418;18.882;2022-08-21T15:18:19;19.40;99.90
38380;DHT22;38377;47.418;18.882;2022-08-21T15:20:45;19.40;99.90
38380;DHT22;38377;47.418;18.882;2022-08-21T15:23:11;19.30;99.90
38380;DHT22;38377;47.418;18.882;2022-08-21T15:25:41;19.30;99.90
38380;DHT22;38377;47.418;18.882;2022-08-21T15:28:07;19.30;99.90
38380;DHT22;38377;47.418;18.882;2022-08-21T15:30:34;19.40;99.90
38380;DHT22;38377;47.418;18.882;2022-08-21T15:33:00;19.30;99.90
38380;DHT22;38377;47.418;18.882;2022-08-21T15:35:26;19.30;99.90
38380;DHT22;38377;47.418;18.882;2022-08-21T15:37:51;19.30;99.90
38380;DHT22;38377;47.418;18.882;2022-08-21T15:40:17;19.30;99.90
38380;DHT22;38377;47.418;18.882;2022-08-21T15:42:44;19.30;99.90
38380;DHT22;38377;47.418;18.882;2022-08-21T15:45:12;19.20;99.90
38380;DHT22;38377;47.418;18.882;2022-08-21T15:47:42;19.20;99.90
38380;DHT22;38377;47.418;18.882;2022-08-21T15:50:09;19.20;99.90
38380;DHT22;38377;47.418;18.882;2022-08-21T15:52:35;19.20;99.90
38380;DHT22;38377;47.418;18.882;2022-08-21T15:55:01;19.20;99.90
38380;DHT22;38377;47.418;18.882;2022-08-21T15:57:27;19.20;99.90
38380;DHT22;38377;47.418;18.882;2022-08-21T16:00:06;19.20;99.90
38380;DHT22;38377;47.418;18.882;2022-08-21T16:02:39;19.20;99.90
38380;DHT22;38377;47.418;18.882;2022-08-21T16:05:07;19.10;99.90
38380;DHT22;38377;47.418;18.882;2022-08-21T16:07:33;19.10;99.90
38380;DHT22;38377;47.418;18.882;2022-08-21T16:09:58;19.10;99.90
38380;DHT22;38377;47.418;18.882;2022-08-21T16:12:27;19.10;99.90
38380;DHT22;38377;47.418;18.882;2022-08-21T16:14:53;19.10;99.90
38380;DHT22;38377;47.418;18.882;2022-08-21T16:17:23;19.10;99.90
38380;DHT22;38377;47.418;18.882;2022-08-21T16:19:50;19.10;99.90
38380;DHT22;38377;47.418;18.882;2022-08-21T16:22:16;19.10;99.90
38380;DHT22;38377;47.418;18.882;2022-08-21T16:24:42;19.10;99.90
38380;DHT22;38377;47.418;18.882;2022-08-21T16:27:08;19.00;99.90
38380;DHT22;38377;47.418;18.882;2022-08-21T16:29:35;19.00;99.90
38380;DHT22;38377;47.418;18.882;2022-08-21T16:32:02;19.00;99.90
38380;DHT22;38377;47.418;18.882;2022-08-21T16:34:28;19.00;99.90
38380;DHT22;38377;47.418;18.882;2022-08-21T16:36:54;19.00;99.90
38380;DHT22;38377;47.418;18.882;2022-08-21T16:39:20;19.00;99.90
38380;DHT22;38377;47.418;18.882;2022-08-21T16:41:47;19.00;99.90
38380;DHT22;38377;47.418;18.882;2022-08-21T16:44:15;19.00;99.90
38380;DHT22;38377;47.418;18.882;2022-08-21T16:46:44;19.00;99.90
38380;DHT22;38377;47.418;18.882;2022-08-21T16:49:10;19.00;99.90
38380;DHT22;38377;47.418;18.882;2022-08-21T16:51:36;19.00;99.90
38380;DHT22;38377;47.418;18.882;2022-08-21T16:54:02;19.00;99.90
38380;DHT22;38377;47.418;18.882;2022-08-21T16:56:29;19.00;99.90
38380;DHT22;38377;47.418;18.882;2022-08-21T16:58:56;19.00;99.90
38380;DHT22;38377;47.418;18.882;2022-08-21T17:01:26;19.00;99.90
38380;DHT22;38377;47.418;18.882;2022-08-21T17:03:53;19.00;99.90